createdAt,value
2018-06-20T00:01:33.541Z,16.00
2018-06-20T00:04:01.831Z,15.90
2018-06-20T00:06:31.367Z,15.90
2018-06-20T00:08:59.732Z,15.80
2018-06-20T00:11:28.035Z,15.70
2018-06-20T00:14:00.794Z,15.60
2018-06-20T00:16:29.027Z,15.70
2018-06-20T00:18:57.287Z,15.70
2018-06-20T00:21:25.535Z,15.60
2018-06-20T00:23:53.789Z,15.60
2018-06-20T00:26:22.017Z,15.70
2018-06-20T00:28:50.237Z,15.80
2018-06-20T00:31:19.448Z,15.80
2018-06-20T00:33:47.704Z,15.90
2018-06-20T00:36:15.948Z,15.90
2018-06-20T00:38:44.274Z,15.90
2018-06-20T00:41:12.572Z,15.90
2018-06-20T00:43:40.823Z,16.00
2018-06-20T00:46:09.084Z,16.10
2018-06-20T00:48:37.315Z,16.20
2018-06-20T00:51:05.560Z,16.30
2018-06-20T00:53:33.814Z,16.40
2018-06-20T00:56:13.465Z,16.50
2018-06-20T00:58:41.679Z,16.60
2018-06-20T01:01:09.924Z,16.60
2018-06-20T01:03:39.208Z,16.70
2018-06-20T01:06:07.498Z,16.70
2018-06-20T01:08:35.755Z,16.80
2018-06-20T01:11:03.982Z,16.80
2018-06-20T01:13:32.451Z,16.80
2018-06-20T01:16:00.705Z,16.80
2018-06-20T01:18:28.984Z,16.90
2018-06-20T01:20:57.247Z,16.90
2018-06-20T01:23:25.555Z,16.90
2018-06-20T01:25:53.830Z,17.00
2018-06-20T01:28:22.487Z,17.00
2018-06-20T01:30:52.071Z,17.00
2018-06-20T01:33:21.108Z,17.00
2018-06-20T01:35:49.379Z,17.00
2018-06-20T01:38:17.619Z,17.00
2018-06-20T01:43:13.897Z,17.00
2018-06-20T01:45:42.115Z,17.00
2018-06-20T01:48:10.399Z,17.10
2018-06-20T01:50:38.643Z,17.10
2018-06-20T01:53:07.239Z,17.10
2018-06-20T01:55:35.567Z,17.10
2018-06-20T01:58:03.769Z,17.00
2018-06-20T02:00:32.078Z,17.00
2018-06-20T02:03:00.306Z,17.00
2018-06-20T02:05:28.829Z,16.90
2018-06-20T02:07:57.092Z,16.90
2018-06-20T02:10:26.074Z,16.90
2018-06-20T02:12:54.387Z,16.90
2018-06-20T02:15:22.587Z,16.80
2018-06-20T02:17:50.900Z,16.80
2018-06-20T02:20:20.240Z,16.80
2018-06-20T02:22:50.432Z,16.70
2018-06-20T02:25:20.263Z,16.70
2018-06-20T02:27:48.485Z,16.60
2018-06-20T02:30:16.724Z,16.60
2018-06-20T02:32:44.989Z,16.50
2018-06-20T02:35:13.276Z,16.50
2018-06-20T02:37:41.616Z,16.50
2018-06-20T02:40:09.897Z,16.50
2018-06-20T02:42:38.192Z,16.50
2018-06-20T02:45:06.444Z,16.50
2018-06-20T02:47:41.617Z,16.50
2018-06-20T02:50:10.691Z,16.50
2018-06-20T02:52:39.184Z,16.50
2018-06-20T02:55:07.433Z,16.50
2018-06-20T02:57:35.679Z,16.60
2018-06-20T03:00:03.982Z,16.60
2018-06-20T03:02:32.240Z,16.70
2018-06-20T03:05:00.444Z,16.80
2018-06-20T03:07:28.707Z,16.90
2018-06-20T03:09:56.993Z,17.00
2018-06-20T03:12:25.281Z,17.00
2018-06-20T03:14:53.481Z,17.10
2018-06-20T03:17:21.824Z,17.20
2018-06-20T03:19:50.194Z,17.30
2018-06-20T03:22:18.439Z,17.40
2018-06-20T03:24:47.732Z,17.50
2018-06-20T03:27:16.014Z,17.50
2018-06-20T03:29:44.200Z,17.60
2018-06-20T03:32:12.485Z,17.60
2018-06-20T03:34:40.768Z,17.70
2018-06-20T03:37:09.006Z,17.70
2018-06-20T03:39:37.299Z,17.70
2018-06-20T03:42:05.552Z,17.70
2018-06-20T03:44:33.821Z,17.70
2018-06-20T03:47:02.204Z,17.80
2018-06-20T03:49:30.450Z,17.80
2018-06-20T03:51:58.751Z,17.90
2018-06-20T03:54:27.007Z,17.90
2018-06-20T03:56:55.261Z,18.00
2018-06-20T03:59:23.668Z,18.00
2018-06-20T04:01:52.022Z,18.10
2018-06-20T04:04:20.326Z,18.10
2018-06-20T04:06:49.235Z,18.20
2018-06-20T04:09:17.527Z,18.40
2018-06-20T04:11:45.772Z,18.40
2018-06-20T04:14:13.963Z,18.50
2018-06-20T04:16:42.223Z,18.50
2018-06-20T04:19:10.533Z,18.60
2018-06-20T04:21:38.791Z,18.60
2018-06-20T04:24:07.071Z,18.70
2018-06-20T04:26:35.316Z,18.70
2018-06-20T04:29:03.565Z,18.80
2018-06-20T04:31:31.785Z,18.90
2018-06-20T04:34:00.069Z,19.00
2018-06-20T04:36:28.311Z,19.00
2018-06-20T04:38:56.551Z,19.00
2018-06-20T04:41:24.840Z,19.00
2018-06-20T04:43:53.576Z,19.10
2018-06-20T04:46:21.894Z,19.20
2018-06-20T04:48:50.394Z,19.20
2018-06-20T04:51:18.603Z,19.30
2018-06-20T04:53:46.896Z,19.40
2018-06-20T04:56:15.194Z,19.50
2018-06-20T05:01:11.915Z,19.80
2018-06-20T05:03:40.335Z,19.80
2018-06-20T05:06:08.740Z,19.80
2018-06-20T05:08:37.074Z,19.90
2018-06-20T05:11:08.931Z,20.10
2018-06-20T05:13:37.584Z,20.20
2018-06-20T05:16:05.900Z,20.30
2018-06-20T05:18:34.192Z,20.40
2018-06-20T05:21:02.437Z,20.50
2018-06-20T05:23:30.695Z,20.60
2018-06-20T05:25:58.980Z,20.80
2018-06-20T05:28:27.512Z,21.10
2018-06-20T05:30:55.795Z,21.30
2018-06-20T05:33:24.025Z,21.60
2018-06-20T05:35:52.288Z,21.70
2018-06-20T05:38:20.521Z,21.70
2018-06-20T05:40:48.769Z,21.90
2018-06-20T05:43:17.018Z,22.90
2018-06-20T05:45:45.279Z,24.20
2018-06-20T05:48:13.616Z,25.80
2018-06-20T05:50:41.863Z,27.50
2018-06-20T05:53:10.249Z,27.70
2018-06-20T05:55:38.499Z,27.20
2018-06-20T05:58:06.788Z,26.70
2018-06-20T06:00:35.030Z,26.30
2018-06-20T06:03:03.268Z,26.30
2018-06-20T06:05:31.631Z,26.50
2018-06-20T06:08:05.505Z,26.40
2018-06-20T06:10:33.757Z,26.10
2018-06-20T06:13:02.107Z,25.90
2018-06-20T06:15:30.835Z,26.20
2018-06-20T06:17:59.088Z,26.40
2018-06-20T06:20:27.952Z,26.50
2018-06-20T06:25:24.349Z,27.00
2018-06-20T06:27:52.603Z,27.30
2018-06-20T06:30:20.947Z,27.10
2018-06-20T06:32:49.256Z,27.50
2018-06-20T06:35:17.444Z,28.40
2018-06-20T06:37:45.785Z,28.30
2018-06-20T06:42:42.053Z,28.30
2018-06-20T06:45:10.297Z,28.80
2018-06-20T06:47:38.527Z,28.60
2018-06-20T06:50:06.939Z,28.70
2018-06-20T06:52:35.011Z,29.30
2018-06-20T06:55:03.337Z,29.60
2018-06-20T06:57:31.547Z,30.20
2018-06-20T06:59:59.847Z,30.40
2018-06-20T07:02:28.162Z,30.60
2018-06-20T07:04:56.609Z,30.50
2018-06-20T07:07:24.856Z,29.70
2018-06-20T07:09:53.112Z,29.70
2018-06-20T07:12:21.397Z,29.60
2018-06-20T07:14:49.632Z,29.70
2018-06-20T07:17:17.985Z,29.90
2018-06-20T07:19:46.193Z,30.20
2018-06-20T07:22:14.947Z,30.40
2018-06-20T07:24:43.917Z,30.90
2018-06-20T07:27:12.179Z,31.30
2018-06-20T07:29:40.705Z,31.50
2018-06-20T07:32:09.336Z,31.70
2018-06-20T07:34:37.543Z,32.10
2018-06-20T07:37:06.108Z,32.70
2018-06-20T07:39:34.370Z,32.40
2018-06-20T07:42:02.614Z,32.60
2018-06-20T07:44:31.131Z,32.40
2018-06-20T07:47:00.136Z,32.20
2018-06-20T07:49:28.767Z,32.50
2018-06-20T07:51:57.038Z,32.40
2018-06-20T07:54:25.251Z,32.10
2018-06-20T07:56:53.647Z,31.30
2018-06-20T07:59:21.975Z,31.20
2018-06-20T08:02:07.184Z,31.30
2018-06-20T08:04:40.751Z,31.70
2018-06-20T08:07:14.467Z,31.30
2018-06-20T08:09:47.988Z,30.80
2018-06-20T08:12:21.612Z,30.70
2018-06-20T08:15:57.787Z,30.90
2018-06-20T08:18:31.380Z,31.30
2018-06-20T08:20:59.909Z,32.40
2018-06-20T08:23:28.589Z,32.60
2018-06-20T08:25:56.876Z,31.90
2018-06-20T08:28:25.236Z,31.50
2018-06-20T08:30:53.490Z,31.70
2018-06-20T08:33:21.803Z,32.40
2018-06-20T08:35:50.291Z,33.00
2018-06-20T08:38:18.576Z,33.60
2018-06-20T08:40:47.261Z,33.80
2018-06-20T08:43:15.480Z,34.20
2018-06-20T08:45:43.793Z,32.80
2018-06-20T08:48:12.071Z,32.10
2018-06-20T08:50:40.447Z,31.90
2018-06-20T08:53:08.793Z,32.20
2018-06-20T08:55:37.726Z,32.00
2018-06-20T08:58:05.962Z,32.10
2018-06-20T09:00:39.470Z,32.60
2018-06-20T09:03:08.060Z,32.50
2018-06-20T09:05:41.714Z,32.10
2018-06-20T09:08:15.445Z,31.50
2018-06-20T09:10:49.590Z,31.00
2018-06-20T09:15:58.295Z,31.50
2018-06-20T09:18:31.865Z,31.10
2018-06-20T09:21:00.093Z,31.10
2018-06-20T09:23:28.348Z,30.90
2018-06-20T09:25:56.653Z,31.50
2018-06-20T09:28:25.422Z,31.90
2018-06-20T09:30:53.658Z,32.10
2018-06-20T09:33:22.141Z,32.90
2018-06-20T09:35:50.447Z,33.00
2018-06-20T09:38:18.700Z,33.30
2018-06-20T09:40:46.926Z,33.30
2018-06-20T09:43:15.159Z,32.90
2018-06-20T09:45:43.502Z,33.00
2018-06-20T09:48:11.792Z,33.60
2018-06-20T09:50:46.411Z,34.10
2018-06-20T09:53:14.671Z,34.30
2018-06-20T09:55:42.988Z,34.00
2018-06-20T09:58:11.252Z,34.50
2018-06-20T10:00:44.884Z,34.40
2018-06-20T10:06:25.689Z,35.10
2018-06-20T10:08:59.296Z,34.10
2018-06-20T10:11:33.072Z,33.60
2018-06-20T10:14:02.012Z,33.70
2018-06-20T10:16:30.941Z,34.50
2018-06-20T10:18:59.853Z,34.70
2018-06-20T10:21:28.162Z,33.60
2018-06-20T10:23:56.350Z,33.00
2018-06-20T10:28:54.255Z,32.50
2018-06-20T10:31:22.618Z,32.50
2018-06-20T10:33:50.844Z,33.10
2018-06-20T10:36:19.484Z,33.30
2018-06-20T10:38:48.182Z,33.80
2018-06-20T10:41:16.436Z,33.30
2018-06-20T10:43:44.691Z,32.80
2018-06-20T10:46:18.490Z,33.30
2018-06-20T10:48:46.940Z,33.70
2018-06-20T10:51:15.431Z,34.00
2018-06-20T10:53:43.671Z,33.50
2018-06-20T10:56:11.931Z,33.70
2018-06-20T10:58:45.699Z,33.20
2018-06-20T11:01:19.254Z,32.50
2018-06-20T11:03:53.015Z,32.00
2018-06-20T11:06:26.791Z,31.80
2018-06-20T11:09:00.479Z,31.80
2018-06-20T11:11:34.142Z,32.30
2018-06-20T11:14:02.450Z,32.50
2018-06-20T11:16:30.681Z,32.80
2018-06-20T11:18:58.947Z,32.30
2018-06-20T11:21:27.428Z,33.00
2018-06-20T11:23:55.634Z,32.80
2018-06-20T11:26:24.136Z,32.20
2018-06-20T11:28:52.952Z,32.30
2018-06-20T11:31:21.263Z,32.60
2018-06-20T11:33:49.496Z,33.20
2018-06-20T11:36:17.914Z,33.30
2018-06-20T11:38:46.233Z,33.00
2018-06-20T11:41:14.548Z,33.30
2018-06-20T11:43:42.887Z,33.50
2018-06-20T11:46:16.523Z,33.60
2018-06-20T11:48:44.832Z,33.50
2018-06-20T11:51:13.175Z,33.40
2018-06-20T11:53:41.803Z,32.90
2018-06-20T11:56:10.089Z,32.60
2018-06-20T11:58:43.871Z,32.50
2018-06-20T12:01:17.472Z,32.50
2018-06-20T12:03:51.312Z,32.80
2018-06-20T12:06:25.032Z,33.00
2018-06-20T12:08:58.770Z,33.00
2018-06-20T12:11:32.619Z,32.80
2018-06-20T12:14:06.343Z,32.60
2018-06-20T12:16:36.058Z,32.30
2018-06-20T12:19:09.771Z,32.60
2018-06-20T12:21:43.487Z,33.00
2018-06-20T12:24:17.503Z,33.20
2018-06-20T12:26:51.180Z,33.20
2018-06-20T12:29:24.963Z,33.00
2018-06-20T12:31:58.635Z,33.00
2018-06-20T12:34:33.004Z,33.00
2018-06-20T12:37:06.611Z,33.00
2018-06-20T12:39:34.111Z,31.90
2018-06-20T12:42:07.710Z,31.60
2018-06-20T12:45:11.651Z,31.70
2018-06-20T12:47:45.314Z,31.70
2018-06-20T12:50:16.875Z,31.20
2018-06-20T12:52:45.232Z,31.30
2018-06-20T12:55:14.209Z,31.40
2018-06-20T12:57:42.781Z,31.30
2018-06-20T13:00:11.185Z,31.50
2018-06-20T13:02:39.434Z,32.00
2018-06-20T13:05:07.651Z,32.40
2018-06-20T13:07:36.336Z,32.80
2018-06-20T13:10:04.888Z,32.80
2018-06-20T13:12:33.128Z,32.60
2018-06-20T13:15:01.518Z,32.50
2018-06-20T13:17:29.995Z,32.50
2018-06-20T13:19:58.254Z,32.10
2018-06-20T13:22:27.347Z,32.10
2018-06-20T13:24:55.571Z,32.00
2018-06-20T13:27:29.181Z,31.60
2018-06-20T13:30:02.872Z,31.70
2018-06-20T13:32:36.599Z,31.70
2018-06-20T13:35:10.228Z,31.70
2018-06-20T13:37:43.825Z,31.90
2018-06-20T13:40:17.420Z,32.10
2018-06-20T13:42:51.011Z,32.30
2018-06-20T13:45:24.829Z,32.50
2018-06-20T13:48:02.485Z,33.00
2018-06-20T13:50:31.476Z,33.70
2018-06-20T13:53:00.127Z,34.30
2018-06-20T13:57:56.699Z,34.90
2018-06-20T14:00:26.289Z,34.90
2018-06-20T14:02:57.067Z,34.90
2018-06-20T14:05:25.328Z,34.80
2018-06-20T14:07:53.587Z,35.00
2018-06-20T14:10:22.076Z,35.00
2018-06-20T14:12:50.336Z,35.20
2018-06-20T14:15:21.719Z,35.10
2018-06-20T14:17:49.949Z,35.50
2018-06-20T14:20:23.693Z,36.10
2018-06-20T14:22:51.943Z,36.30
2018-06-20T14:25:20.249Z,36.10
2018-06-20T14:27:48.455Z,35.70
2018-06-20T14:30:22.125Z,35.90
2018-06-20T14:32:55.676Z,36.50
2018-06-20T14:35:29.939Z,37.00
2018-06-20T14:38:03.623Z,37.30
2018-06-20T14:40:37.518Z,37.40
2018-06-20T14:45:44.666Z,37.30
2018-06-20T14:48:12.883Z,37.20
2018-06-20T14:50:41.115Z,37.40
2018-06-20T14:53:09.359Z,37.90
2018-06-20T14:55:37.616Z,38.30
2018-06-20T14:58:05.915Z,38.20
2018-06-20T15:00:34.497Z,37.80
2018-06-20T15:03:03.007Z,37.60
2018-06-20T15:05:31.752Z,37.50
2018-06-20T15:08:00.421Z,37.80
2018-06-20T15:10:28.887Z,37.70
2018-06-20T15:12:57.159Z,37.30
2018-06-20T15:15:25.381Z,37.40
2018-06-20T15:17:54.388Z,37.90
2018-06-20T15:20:22.634Z,38.10
2018-06-20T15:22:50.894Z,38.20
2018-06-20T15:25:25.143Z,37.50
2018-06-20T15:27:58.929Z,37.10
2018-06-20T15:30:33.344Z,36.60
2018-06-20T15:33:06.960Z,37.00
2018-06-20T15:36:43.573Z,37.30
2018-06-20T15:39:11.808Z,37.40
2018-06-20T15:44:08.192Z,37.20
2018-06-20T15:46:36.843Z,37.40
2018-06-20T15:51:33.111Z,38.60
2018-06-20T15:54:01.324Z,38.30
2018-06-20T15:56:29.577Z,38.10
2018-06-20T15:58:57.818Z,37.80
2018-06-20T16:03:54.031Z,37.30
2018-06-20T16:06:22.239Z,37.80
2018-06-20T16:08:56.042Z,38.10
2018-06-20T16:11:25.378Z,38.50
2018-06-20T16:13:53.659Z,39.10
2018-06-20T16:16:22.037Z,39.10
2018-06-20T16:18:55.611Z,39.10
2018-06-20T16:21:29.720Z,39.80
2018-06-20T16:24:03.444Z,40.20
2018-06-20T16:26:37.168Z,39.80
2018-06-20T16:29:10.879Z,39.30
2018-06-20T16:31:39.120Z,38.40
2018-06-20T16:34:07.398Z,37.80
2018-06-20T16:36:35.813Z,38.10
2018-06-20T16:39:05.820Z,38.10
2018-06-20T16:41:34.176Z,38.70
2018-06-20T16:44:02.409Z,39.20
2018-06-20T16:46:30.648Z,39.30
2018-06-20T16:48:59.084Z,39.40
2018-06-20T16:51:27.395Z,39.50
2018-06-20T16:53:55.765Z,38.90
2018-06-20T16:56:24.238Z,38.20
2018-06-20T16:58:52.505Z,38.00
2018-06-20T17:01:26.005Z,38.20
2018-06-20T17:03:54.199Z,38.30
2018-06-20T17:06:22.591Z,37.90
2018-06-20T17:08:50.811Z,37.70
2018-06-20T17:13:53.017Z,36.70
2018-06-20T17:16:26.759Z,35.30
2018-06-20T17:20:00.945Z,33.90
2018-06-20T17:22:34.671Z,32.80
2018-06-20T17:25:08.272Z,32.20
2018-06-20T17:27:37.224Z,32.00
2018-06-20T17:30:06.067Z,32.10
2018-06-20T17:32:34.324Z,32.30
2018-06-20T17:35:02.666Z,32.30
2018-06-20T17:37:31.377Z,31.80
2018-06-20T17:39:59.632Z,31.30
2018-06-20T17:42:28.263Z,30.60
2018-06-20T17:44:56.563Z,30.00
2018-06-20T17:47:24.859Z,29.60
2018-06-20T17:49:53.145Z,29.20
2018-06-20T17:52:21.409Z,28.90
2018-06-20T17:54:49.794Z,28.80
2018-06-20T17:57:18.099Z,28.60
2018-06-20T17:59:46.326Z,28.50
2018-06-20T18:02:14.638Z,28.40
2018-06-20T18:04:49.232Z,28.30
2018-06-20T18:07:23.717Z,28.20
2018-06-20T18:09:57.435Z,28.10
2018-06-20T18:12:31.949Z,28.00
2018-06-20T18:15:05.589Z,27.90
2018-06-20T18:17:33.929Z,27.70
2018-06-20T18:20:02.159Z,27.60
2018-06-20T18:22:30.389Z,27.50
2018-06-20T18:24:58.686Z,27.40
2018-06-20T18:27:28.865Z,27.20
2018-06-20T18:29:57.107Z,27.00
2018-06-20T18:32:25.498Z,26.90
2018-06-20T18:34:53.768Z,26.70
2018-06-20T18:37:22.142Z,26.50
2018-06-20T18:39:55.929Z,26.40
2018-06-20T18:42:24.191Z,26.30
2018-06-20T18:44:52.531Z,26.10
2018-06-20T18:47:26.155Z,26.00
2018-06-20T18:49:54.392Z,25.90
2018-06-20T18:52:22.636Z,25.70
2018-06-20T18:54:50.907Z,25.50
2018-06-20T18:57:24.426Z,25.40
2018-06-20T18:59:57.998Z,25.20
2018-06-20T19:02:31.680Z,25.10
2018-06-20T19:05:05.893Z,25.00
2018-06-20T19:07:39.504Z,24.90
2018-06-20T19:10:08.452Z,24.80
2018-06-20T19:12:37.079Z,24.70
2018-06-20T19:15:05.669Z,24.50
2018-06-20T19:17:34.360Z,24.40
2018-06-20T19:20:02.689Z,24.20
2018-06-20T19:22:30.929Z,24.00
2018-06-20T19:24:59.685Z,23.80
2018-06-20T19:27:27.945Z,23.70
2018-06-20T19:29:56.235Z,23.50
2018-06-20T19:32:24.702Z,23.40
2018-06-20T19:34:52.911Z,23.20
2018-06-20T19:37:21.264Z,23.10
2018-06-20T19:39:50.503Z,22.90
2018-06-20T19:42:20.382Z,22.80
2018-06-20T19:44:48.942Z,22.70
2018-06-20T19:47:17.106Z,22.60
2018-06-20T19:49:45.423Z,22.50
2018-06-20T19:52:14.247Z,22.30
2018-06-20T19:54:43.219Z,22.20
2018-06-20T19:57:11.519Z,22.00
2018-06-20T19:59:39.901Z,21.80
2018-06-20T20:02:08.817Z,21.60
2018-06-20T20:04:37.201Z,21.50
2018-06-20T20:07:06.225Z,21.40
2018-06-20T20:09:34.532Z,21.30
2018-06-20T20:12:02.749Z,21.20
2018-06-20T20:14:30.984Z,21.10
2018-06-20T20:16:59.220Z,21.00
2018-06-20T20:19:27.427Z,20.90
2018-06-20T20:21:55.685Z,20.80
2018-06-20T20:24:23.944Z,20.60
2018-06-20T20:26:52.356Z,20.50
2018-06-20T20:29:20.608Z,20.40
2018-06-20T20:31:48.957Z,20.30
2018-06-20T20:34:17.213Z,20.30
2018-06-20T20:36:45.864Z,20.20
2018-06-20T20:39:14.396Z,20.20
2018-06-20T20:41:42.661Z,20.10
2018-06-20T20:44:11.539Z,20.00
2018-06-20T20:46:40.404Z,20.10
2018-06-20T20:49:08.622Z,20.00
2018-06-20T20:51:36.864Z,20.00
2018-06-20T20:54:05.392Z,19.90
2018-06-20T20:56:33.659Z,19.80
2018-06-20T20:59:02.306Z,19.80
2018-06-20T21:01:30.566Z,20.10
2018-06-20T21:03:58.873Z,20.20
2018-06-20T21:06:27.180Z,20.40
2018-06-20T21:08:55.437Z,20.50
2018-06-20T21:11:24.978Z,20.60
2018-06-20T21:13:53.654Z,20.70
2018-06-20T21:16:21.921Z,20.60
2018-06-20T21:18:50.147Z,20.60
2018-06-20T21:21:18.384Z,20.50
2018-06-20T21:23:46.620Z,20.40
2018-06-20T21:26:14.888Z,20.30
2018-06-20T21:28:43.167Z,20.10
2018-06-20T21:31:11.435Z,20.00
2018-06-20T21:33:39.731Z,19.90
2018-06-20T21:36:07.995Z,19.80
2018-06-20T21:38:36.243Z,19.70
2018-06-20T21:41:04.551Z,19.60
2018-06-20T21:43:33.226Z,19.50
2018-06-20T21:46:01.473Z,19.40
2018-06-20T21:48:29.702Z,19.40
2018-06-20T21:50:57.922Z,19.20
2018-06-20T21:53:26.199Z,19.10
2018-06-20T21:55:54.487Z,19.00
2018-06-20T21:58:23.663Z,18.90
2018-06-20T22:00:51.903Z,18.70
2018-06-20T22:03:20.766Z,18.50
2018-06-20T22:05:49.030Z,18.30
2018-06-20T22:08:17.275Z,18.20
2018-06-20T22:10:45.496Z,18.10
2018-06-20T22:13:17.507Z,18.00
2018-06-20T22:15:45.805Z,18.00
2018-06-20T22:18:14.043Z,17.90
2018-06-20T22:20:42.260Z,17.90
2018-06-20T22:23:10.526Z,17.90
2018-06-20T22:25:38.820Z,17.80
2018-06-20T22:28:07.052Z,17.80
2018-06-20T22:30:35.312Z,17.80
2018-06-20T22:33:03.531Z,17.70
2018-06-20T22:35:31.927Z,17.80
2018-06-20T22:38:00.247Z,17.80
2018-06-20T22:40:28.718Z,17.70
2018-06-20T22:42:57.051Z,17.70
2018-06-20T22:45:26.479Z,17.70
2018-06-20T22:47:54.777Z,17.70
2018-06-20T22:50:23.128Z,17.60
2018-06-20T22:52:51.473Z,17.60
2018-06-20T22:55:19.807Z,17.50
2018-06-20T22:57:48.158Z,17.40
2018-06-20T23:00:16.414Z,17.40
2018-06-20T23:02:44.724Z,17.40
2018-06-20T23:05:14.877Z,17.40
2018-06-20T23:07:43.226Z,17.40
2018-06-20T23:10:11.518Z,17.40
2018-06-20T23:12:40.210Z,17.30
2018-06-20T23:15:09.204Z,17.10
2018-06-20T23:17:37.551Z,17.00
2018-06-20T23:20:06.641Z,16.90
2018-06-20T23:22:34.985Z,16.80
2018-06-20T23:25:03.333Z,16.70
2018-06-20T23:27:32.069Z,16.60
2018-06-20T23:30:00.850Z,16.60
2018-06-20T23:32:29.152Z,16.70
2018-06-20T23:34:57.463Z,16.70
2018-06-20T23:37:25.803Z,16.70
2018-06-20T23:39:54.098Z,16.70
2018-06-20T23:42:22.414Z,16.70
2018-06-20T23:44:50.722Z,16.80
2018-06-20T23:47:19.014Z,16.90
2018-06-20T23:49:47.819Z,16.90
2018-06-20T23:52:16.128Z,16.80
2018-06-20T23:54:44.859Z,16.70
2018-06-20T23:57:13.602Z,16.70
